Lenox, Kentucky
Current Conditions -  °F | °C
As of 1:53 AM on Sunday 23 Nov 2014 (Local Time) from KJKL Reporting Station
Overcast Overcast  
Wind Chill: 51°   Ceiling: 9500
Heat Index: 51°   Visibility: 10mi
Dew Point: 29°   Wind: 3mph
Humidity: 43%   Direction: NA
Pressure: 30.1"   Gusts: NA
Location:  37.937°N, 83.2694°W
Report Text: KJKL 230653Z AUTO VRB03KT 10SM OVC095 11/M02 A3010 RMK AO2 SLP189 T01061017
Loading
Personal Weather Stations






























Interactive Weather Map New forecast layout! Learn more

10-Day Weather Forecast

Advertisements
Track Severe Weather on mobile